sensor_id;sensor_type;location;lat;lon;timestamp;P1;durP1;ratioP1;P2;durP2;ratioP2
17153;SDS011;8692;52.164;7.558;2022-10-17T00:01:52;4.47;;;4.07;;
17153;SDS011;8692;52.164;7.558;2022-10-17T00:04:20;5.10;;;4.70;;
17153;SDS011;8692;52.164;7.558;2022-10-17T00:06:48;5.30;;;4.90;;
17153;SDS011;8692;52.164;7.558;2022-10-17T00:09:20;5.03;;;4.50;;
17153;SDS011;8692;52.164;7.558;2022-10-17T00:11:50;5.23;;;4.80;;
17153;SDS011;8692;52.164;7.558;2022-10-17T00:14:18;5.47;;;5.07;;
17153;SDS011;8692;52.164;7.558;2022-10-17T00:16:46;5.07;;;4.67;;
17153;SDS011;8692;52.164;7.558;2022-10-17T00:19:14;4.60;;;4.23;;
17153;SDS011;8692;52.164;7.558;2022-10-17T00:21:42;4.50;;;3.83;;
17153;SDS011;8692;52.164;7.558;2022-10-17T00:24:10;4.40;;;4.10;;
17153;SDS011;8692;52.164;7.558;2022-10-17T00:26:40;4.70;;;4.30;;
17153;SDS011;8692;52.164;7.558;2022-10-17T00:29:08;5.47;;;4.50;;
17153;SDS011;8692;52.164;7.558;2022-10-17T00:31:38;6.70;;;4.97;;
17153;SDS011;8692;52.164;7.558;2022-10-17T00:34:06;4.80;;;4.33;;
17153;SDS011;8692;52.164;7.558;2022-10-17T00:36:35;5.60;;;5.20;;
17153;SDS011;8692;52.164;7.558;2022-10-17T00:39:03;4.87;;;4.47;;
17153;SDS011;8692;52.164;7.558;2022-10-17T00:41:31;4.57;;;4.17;;
17153;SDS011;8692;52.164;7.558;2022-10-17T00:44:06;5.17;;;4.77;;
17153;SDS011;8692;52.164;7.558;2022-10-17T00:46:56;4.73;;;4.33;;
17153;SDS011;8692;52.164;7.558;2022-10-17T00:49:27;4.73;;;3.83;;
17153;SDS011;8692;52.164;7.558;2022-10-17T00:52:00;4.30;;;4.00;;
17153;SDS011;8692;52.164;7.558;2022-10-17T00:54:31;3.93;;;3.60;;
17153;SDS011;8692;52.164;7.558;2022-10-17T00:57:04;3.93;;;3.63;;
17153;SDS011;8692;52.164;7.558;2022-10-17T00:59:35;4.27;;;3.87;;
17153;SDS011;8692;52.164;7.558;2022-10-17T01:02:07;4.40;;;4.00;;
17153;SDS011;8692;52.164;7.558;2022-10-17T01:04:39;4.30;;;4.00;;
17153;SDS011;8692;52.164;7.558;2022-10-17T01:07:11;4.47;;;4.13;;
17153;SDS011;8692;52.164;7.558;2022-10-17T01:09:39;3.87;;;3.57;;
17153;SDS011;8692;52.164;7.558;2022-10-17T01:12:10;4.27;;;3.97;;
17153;SDS011;8692;52.164;7.558;2022-10-17T01:14:48;3.90;;;3.60;;
17153;SDS011;8692;52.164;7.558;2022-10-17T01:17:26;5.43;;;3.90;;
17153;SDS011;8692;52.164;7.558;2022-10-17T01:20:20;5.00;;;4.50;;
17153;SDS011;8692;52.164;7.558;2022-10-17T01:23:17;7.27;;;4.60;;
17153;SDS011;8692;52.164;7.558;2022-10-17T01:25:55;5.83;;;4.20;;
17153;SDS011;8692;52.164;7.558;2022-10-17T01:28:38;4.73;;;4.33;;
17153;SDS011;8692;52.164;7.558;2022-10-17T01:31:31;4.53;;;4.13;;
17153;SDS011;8692;52.164;7.558;2022-10-17T01:34:06;4.93;;;4.57;;
17153;SDS011;8692;52.164;7.558;2022-10-17T01:36:44;4.90;;;4.37;;
17153;SDS011;8692;52.164;7.558;2022-10-17T01:39:19;4.93;;;4.50;;
17153;SDS011;8692;52.164;7.558;2022-10-17T01:42:06;4.80;;;4.40;;
17153;SDS011;8692;52.164;7.558;2022-10-17T01:44:42;6.27;;;4.60;;
17153;SDS011;8692;52.164;7.558;2022-10-17T01:47:20;5.13;;;4.40;;
17153;SDS011;8692;52.164;7.558;2022-10-17T01:49:53;5.97;;;5.03;;
17153;SDS011;8692;52.164;7.558;2022-10-17T01:52:27;5.60;;;5.10;;
17153;SDS011;8692;52.164;7.558;2022-10-17T01:55:02;4.40;;;4.10;;
17153;SDS011;8692;52.164;7.558;2022-10-17T01:57:34;4.77;;;4.30;;
17153;SDS011;8692;52.164;7.558;2022-10-17T02:00:07;4.97;;;4.47;;
17153;SDS011;8692;52.164;7.558;2022-10-17T02:02:41;4.20;;;3.90;;
17153;SDS011;8692;52.164;7.558;2022-10-17T02:05:11;4.23;;;3.93;;
17153;SDS011;8692;52.164;7.558;2022-10-17T02:07:41;3.87;;;3.57;;
17153;SDS011;8692;52.164;7.558;2022-10-17T02:10:11;3.70;;;3.40;;
17153;SDS011;8692;52.164;7.558;2022-10-17T02:12:47;4.23;;;3.93;;
17153;SDS011;8692;52.164;7.558;2022-10-17T02:15:27;3.87;;;3.57;;
17153;SDS011;8692;52.164;7.558;2022-10-17T02:18:15;5.50;;;4.30;;
17153;SDS011;8692;52.164;7.558;2022-10-17T02:20:50;5.60;;;4.23;;
17153;SDS011;8692;52.164;7.558;2022-10-17T02:23:27;4.60;;;4.30;;
17153;SDS011;8692;52.164;7.558;2022-10-17T02:26:06;4.17;;;3.63;;
17153;SDS011;8692;52.164;7.558;2022-10-17T02:28:39;3.73;;;3.43;;
17153;SDS011;8692;52.164;7.558;2022-10-17T02:31:15;4.03;;;3.73;;
17153;SDS011;8692;52.164;7.558;2022-10-17T02:33:51;3.90;;;3.60;;
17153;SDS011;8692;52.164;7.558;2022-10-17T02:36:26;3.97;;;3.67;;
17153;SDS011;8692;52.164;7.558;2022-10-17T02:39:00;3.97;;;3.57;;
17153;SDS011;8692;52.164;7.558;2022-10-17T02:41:30;3.60;;;3.40;;
17153;SDS011;8692;52.164;7.558;2022-10-17T02:43:59;4.43;;;4.03;;
17153;SDS011;8692;52.164;7.558;2022-10-17T02:46:31;4.00;;;3.70;;
17153;SDS011;8692;52.164;7.558;2022-10-17T02:49:01;3.90;;;3.60;;
17153;SDS011;8692;52.164;7.558;2022-10-17T02:51:36;3.90;;;3.60;;
17153;SDS011;8692;52.164;7.558;2022-10-17T02:54:12;3.67;;;3.37;;
17153;SDS011;8692;52.164;7.558;2022-10-17T02:56:49;5.57;;;3.87;;
17153;SDS011;8692;52.164;7.558;2022-10-17T02:59:21;3.63;;;3.33;;
17153;SDS011;8692;52.164;7.558;2022-10-17T03:01:51;3.83;;;3.27;;
17153;SDS011;8692;52.164;7.558;2022-10-17T03:04:24;4.20;;;3.80;;
17153;SDS011;8692;52.164;7.558;2022-10-17T03:06:52;3.73;;;3.43;;
17153;SDS011;8692;52.164;7.558;2022-10-17T03:09:21;4.93;;;4.00;;
17153;SDS011;8692;52.164;7.558;2022-10-17T03:11:49;4.03;;;3.73;;
17153;SDS011;8692;52.164;7.558;2022-10-17T03:14:20;4.30;;;3.90;;
17153;SDS011;8692;52.164;7.558;2022-10-17T03:16:48;5.07;;;4.67;;
17153;SDS011;8692;52.164;7.558;2022-10-17T03:19:18;4.50;;;4.20;;
17153;SDS011;8692;52.164;7.558;2022-10-17T03:21:48;4.97;;;4.20;;
17153;SDS011;8692;52.164;7.558;2022-10-17T03:24:18;5.90;;;4.40;;
17153;SDS011;8692;52.164;7.558;2022-10-17T03:26:46;5.10;;;4.70;;
17153;SDS011;8692;52.164;7.558;2022-10-17T03:29:14;5.57;;;4.40;;
17153;SDS011;8692;52.164;7.558;2022-10-17T03:31:43;5.43;;;4.93;;
17153;SDS011;8692;52.164;7.558;2022-10-17T03:34:11;4.67;;;4.27;;
17153;SDS011;8692;52.164;7.558;2022-10-17T03:36:42;4.80;;;4.40;;
17153;SDS011;8692;52.164;7.558;2022-10-17T03:39:14;4.77;;;4.30;;
17153;SDS011;8692;52.164;7.558;2022-10-17T03:41:42;4.30;;;4.00;;
17153;SDS011;8692;52.164;7.558;2022-10-17T03:44:13;4.77;;;4.27;;
17153;SDS011;8692;52.164;7.558;2022-10-17T03:46:41;4.13;;;3.83;;
17153;SDS011;8692;52.164;7.558;2022-10-17T03:49:10;4.57;;;4.17;;
17153;SDS011;8692;52.164;7.558;2022-10-17T03:51:40;4.63;;;4.30;;
17153;SDS011;8692;52.164;7.558;2022-10-17T03:57:06;4.10;;;3.80;;
17153;SDS011;8692;52.164;7.558;2022-10-17T03:59:35;4.80;;;4.07;;
17153;SDS011;8692;52.164;7.558;2022-10-17T04:02:08;4.30;;;3.90;;
17153;SDS011;8692;52.164;7.558;2022-10-17T04:04:37;4.23;;;3.93;;
17153;SDS011;8692;52.164;7.558;2022-10-17T04:07:05;4.87;;;3.97;;
17153;SDS011;8692;52.164;7.558;2022-10-17T04:09:37;4.03;;;3.73;;
17153;SDS011;8692;52.164;7.558;2022-10-17T04:12:11;4.33;;;4.00;;
17153;SDS011;8692;52.164;7.558;2022-10-17T04:14:39;4.20;;;3.90;;
17153;SDS011;8692;52.164;7.558;2022-10-17T04:17:07;4.33;;;3.97;;
17153;SDS011;8692;52.164;7.558;2022-10-17T04:19:36;4.23;;;3.93;;
17153;SDS011;8692;52.164;7.558;2022-10-17T04:22:05;4.33;;;4.03;;
17153;SDS011;8692;52.164;7.558;2022-10-17T04:24:36;4.47;;;4.07;;
17153;SDS011;8692;52.164;7.558;2022-10-17T04:27:08;4.83;;;4.23;;
17153;SDS011;8692;52.164;7.558;2022-10-17T04:29:41;4.67;;;4.17;;
17153;SDS011;8692;52.164;7.558;2022-10-17T04:32:19;4.57;;;4.17;;
17153;SDS011;8692;52.164;7.558;2022-10-17T04:35:17;4.77;;;4.37;;
17153;SDS011;8692;52.164;7.558;2022-10-17T04:37:51;4.47;;;4.17;;
17153;SDS011;8692;52.164;7.558;2022-10-17T04:40:21;5.00;;;4.10;;
17153;SDS011;8692;52.164;7.558;2022-10-17T04:42:51;4.63;;;4.23;;
17153;SDS011;8692;52.164;7.558;2022-10-17T04:45:24;4.77;;;4.37;;
17153;SDS011;8692;52.164;7.558;2022-10-17T04:47:56;4.87;;;4.47;;
17153;SDS011;8692;52.164;7.558;2022-10-17T04:50:25;5.00;;;4.60;;
17153;SDS011;8692;52.164;7.558;2022-10-17T04:53:25;5.40;;;4.90;;
17153;SDS011;8692;52.164;7.558;2022-10-17T04:55:56;4.93;;;4.53;;
17153;SDS011;8692;52.164;7.558;2022-10-17T04:58:24;5.80;;;4.10;;
17153;SDS011;8692;52.164;7.558;2022-10-17T05:00:57;4.63;;;4.30;;
17153;SDS011;8692;52.164;7.558;2022-10-17T05:03:27;4.43;;;4.03;;
17153;SDS011;8692;52.164;7.558;2022-10-17T05:05:56;5.60;;;5.20;;
17153;SDS011;8692;52.164;7.558;2022-10-17T05:08:27;5.70;;;5.20;;
17153;SDS011;8692;52.164;7.558;2022-10-17T05:10:57;5.83;;;5.33;;
17153;SDS011;8692;52.164;7.558;2022-10-17T05:13:30;6.67;;;5.57;;
17153;SDS011;8692;52.164;7.558;2022-10-17T05:15:59;6.40;;;5.80;;
17153;SDS011;8692;52.164;7.558;2022-10-17T05:18:27;6.03;;;5.57;;
17153;SDS011;8692;52.164;7.558;2022-10-17T05:20:56;9.10;;;7.07;;
17153;SDS011;8692;52.164;7.558;2022-10-17T05:23:24;6.13;;;5.60;;
17153;SDS011;8692;52.164;7.558;2022-10-17T05:25:54;5.27;;;4.77;;
17153;SDS011;8692;52.164;7.558;2022-10-17T05:28:25;5.53;;;5.03;;
17153;SDS011;8692;52.164;7.558;2022-10-17T05:31:01;5.43;;;4.97;;
17153;SDS011;8692;52.164;7.558;2022-10-17T05:33:29;5.83;;;5.10;;
17153;SDS011;8692;52.164;7.558;2022-10-17T05:35:59;6.00;;;5.37;;
17153;SDS011;8692;52.164;7.558;2022-10-17T05:38:27;6.00;;;5.00;;
17153;SDS011;8692;52.164;7.558;2022-10-17T05:40:57;6.43;;;5.80;;
17153;SDS011;8692;52.164;7.558;2022-10-17T05:43:26;5.90;;;5.40;;
17153;SDS011;8692;52.164;7.558;2022-10-17T05:45:55;5.63;;;5.13;;
17153;SDS011;8692;52.164;7.558;2022-10-17T05:48:23;6.90;;;5.87;;
17153;SDS011;8692;52.164;7.558;2022-10-17T05:50:56;7.60;;;6.30;;
17153;SDS011;8692;52.164;7.558;2022-10-17T05:53:26;5.77;;;5.27;;
17153;SDS011;8692;52.164;7.558;2022-10-17T05:56:03;6.00;;;5.50;;
17153;SDS011;8692;52.164;7.558;2022-10-17T05:58:34;6.77;;;6.17;;
17153;SDS011;8692;52.164;7.558;2022-10-17T06:01:29;5.83;;;5.23;;
17153;SDS011;8692;52.164;7.558;2022-10-17T06:03:57;6.33;;;5.73;;
17153;SDS011;8692;52.164;7.558;2022-10-17T06:06:25;6.10;;;4.93;;
17153;SDS011;8692;52.164;7.558;2022-10-17T06:08:54;5.23;;;4.77;;
17153;SDS011;8692;52.164;7.558;2022-10-17T06:11:29;6.87;;;5.60;;
17153;SDS011;8692;52.164;7.558;2022-10-17T06:13:58;6.10;;;5.50;;
17153;SDS011;8692;52.164;7.558;2022-10-17T06:16:28;9.73;;;6.10;;
17153;SDS011;8692;52.164;7.558;2022-10-17T06:18:57;6.00;;;5.50;;
17153;SDS011;8692;52.164;7.558;2022-10-17T06:21:26;6.77;;;6.17;;
17153;SDS011;8692;52.164;7.558;2022-10-17T06:24:03;6.27;;;5.57;;
17153;SDS011;8692;52.164;7.558;2022-10-17T06:26:35;6.83;;;6.23;;
17153;SDS011;8692;52.164;7.558;2022-10-17T06:29:05;7.00;;;6.30;;
17153;SDS011;8692;52.164;7.558;2022-10-17T06:31:39;7.07;;;6.37;;
17153;SDS011;8692;52.164;7.558;2022-10-17T06:34:07;7.83;;;6.33;;
17153;SDS011;8692;52.164;7.558;2022-10-17T06:36:38;6.53;;;5.90;;
17153;SDS011;8692;52.164;7.558;2022-10-17T06:39:08;6.57;;;5.93;;
17153;SDS011;8692;52.164;7.558;2022-10-17T06:41:51;7.17;;;5.90;;
17153;SDS011;8692;52.164;7.558;2022-10-17T06:44:33;6.63;;;6.00;;
17153;SDS011;8692;52.164;7.558;2022-10-17T06:47:37;6.50;;;5.90;;
17153;SDS011;8692;52.164;7.558;2022-10-17T06:50:24;7.00;;;6.30;;
17153;SDS011;8692;52.164;7.558;2022-10-17T06:53:09;7.23;;;6.63;;
17153;SDS011;8692;52.164;7.558;2022-10-17T06:56:00;6.57;;;5.90;;
17153;SDS011;8692;52.164;7.558;2022-10-17T06:58:51;7.03;;;6.43;;
17153;SDS011;8692;52.164;7.558;2022-10-17T07:01:33;8.47;;;7.27;;
17153;SDS011;8692;52.164;7.558;2022-10-17T07:04:03;7.70;;;6.90;;
17153;SDS011;8692;52.164;7.558;2022-10-17T07:06:32;7.60;;;6.87;;
17153;SDS011;8692;52.164;7.558;2022-10-17T07:09:07;8.67;;;7.90;;
17153;SDS011;8692;52.164;7.558;2022-10-17T07:11:35;8.43;;;7.63;;
17153;SDS011;8692;52.164;7.558;2022-10-17T07:14:07;7.03;;;6.43;;
17153;SDS011;8692;52.164;7.558;2022-10-17T07:16:35;6.63;;;6.13;;
17153;SDS011;8692;52.164;7.558;2022-10-17T07:19:11;7.87;;;6.80;;
17153;SDS011;8692;52.164;7.558;2022-10-17T07:21:41;9.27;;;7.07;;
17153;SDS011;8692;52.164;7.558;2022-10-17T07:24:12;9.02;;;8.23;;
17153;SDS011;8692;52.164;7.558;2022-10-17T07:26:45;8.33;;;7.57;;
17153;SDS011;8692;52.164;7.558;2022-10-17T07:29:15;7.50;;;6.90;;
17153;SDS011;8692;52.164;7.558;2022-10-17T07:32:06;7.67;;;7.00;;
17153;SDS011;8692;52.164;7.558;2022-10-17T07:34:35;7.33;;;6.53;;
17153;SDS011;8692;52.164;7.558;2022-10-17T07:37:05;7.43;;;6.73;;
17153;SDS011;8692;52.164;7.558;2022-10-17T07:39:37;7.43;;;6.80;;
17153;SDS011;8692;52.164;7.558;2022-10-17T07:42:08;9.43;;;6.73;;
17153;SDS011;8692;52.164;7.558;2022-10-17T07:44:38;8.03;;;6.37;;
17153;SDS011;8692;52.164;7.558;2022-10-17T07:47:07;7.57;;;6.87;;
17153;SDS011;8692;52.164;7.558;2022-10-17T07:49:36;8.43;;;7.73;;
17153;SDS011;8692;52.164;7.558;2022-10-17T07:52:08;7.93;;;7.13;;
17153;SDS011;8692;52.164;7.558;2022-10-17T07:54:36;8.30;;;7.53;;
17153;SDS011;8692;52.164;7.558;2022-10-17T07:57:05;8.13;;;7.43;;
17153;SDS011;8692;52.164;7.558;2022-10-17T07:59:36;10.10;;;8.80;;
17153;SDS011;8692;52.164;7.558;2022-10-17T08:02:09;9.03;;;8.17;;
17153;SDS011;8692;52.164;7.558;2022-10-17T08:04:45;10.27;;;8.80;;
17153;SDS011;8692;52.164;7.558;2022-10-17T08:07:13;9.93;;;8.93;;
17153;SDS011;8692;52.164;7.558;2022-10-17T08:09:52;9.33;;;8.43;;
17153;SDS011;8692;52.164;7.558;2022-10-17T08:12:22;8.80;;;8.03;;
17153;SDS011;8692;52.164;7.558;2022-10-17T08:14:52;10.17;;;8.73;;
17153;SDS011;8692;52.164;7.558;2022-10-17T08:17:20;9.90;;;8.90;;
17153;SDS011;8692;52.164;7.558;2022-10-17T08:19:49;8.50;;;7.63;;
17153;SDS011;8692;52.164;7.558;2022-10-17T08:22:17;8.70;;;7.90;;
17153;SDS011;8692;52.164;7.558;2022-10-17T08:24:47;9.63;;;8.67;;
17153;SDS011;8692;52.164;7.558;2022-10-17T08:27:18;10.37;;;9.17;;
17153;SDS011;8692;52.164;7.558;2022-10-17T08:29:50;9.10;;;8.27;;
17153;SDS011;8692;52.164;7.558;2022-10-17T08:32:23;9.30;;;8.37;;
17153;SDS011;8692;52.164;7.558;2022-10-17T08:34:53;9.17;;;8.37;;
17153;SDS011;8692;52.164;7.558;2022-10-17T08:37:22;10.83;;;8.60;;
17153;SDS011;8692;52.164;7.558;2022-10-17T08:39:50;10.77;;;8.53;;
17153;SDS011;8692;52.164;7.558;2022-10-17T08:42:27;11.13;;;9.20;;
17153;SDS011;8692;52.164;7.558;2022-10-17T08:45:11;9.27;;;8.37;;
17153;SDS011;8692;52.164;7.558;2022-10-17T08:47:52;8.53;;;7.73;;
17153;SDS011;8692;52.164;7.558;2022-10-17T08:50:29;9.37;;;8.40;;
17153;SDS011;8692;52.164;7.558;2022-10-17T08:53:05;9.53;;;8.63;;
17153;SDS011;8692;52.164;7.558;2022-10-17T08:55:38;9.10;;;8.20;;
17153;SDS011;8692;52.164;7.558;2022-10-17T08:58:11;8.90;;;8.10;;
17153;SDS011;8692;52.164;7.558;2022-10-17T09:00:45;8.77;;;7.87;;
17153;SDS011;8692;52.164;7.558;2022-10-17T09:03:24;9.77;;;8.27;;
17153;SDS011;8692;52.164;7.558;2022-10-17T09:06:11;8.63;;;7.73;;
17153;SDS011;8692;52.164;7.558;2022-10-17T09:08:48;9.53;;;8.53;;
17153;SDS011;8692;52.164;7.558;2022-10-17T09:11:29;12.00;;;8.47;;
17153;SDS011;8692;52.164;7.558;2022-10-17T09:14:26;9.60;;;8.60;;
17153;SDS011;8692;52.164;7.558;2022-10-17T09:17:13;8.27;;;7.57;;
17153;SDS011;8692;52.164;7.558;2022-10-17T09:19:52;9.70;;;8.70;;
17153;SDS011;8692;52.164;7.558;2022-10-17T09:22:31;9.67;;;7.20;;
17153;SDS011;8692;52.164;7.558;2022-10-17T09:25:04;7.93;;;7.10;;
17153;SDS011;8692;52.164;7.558;2022-10-17T09:27:39;8.77;;;7.13;;
17153;SDS011;8692;52.164;7.558;2022-10-17T09:30:21;6.93;;;6.23;;
17153;SDS011;8692;52.164;7.558;2022-10-17T09:33:13;11.00;;;6.67;;
17153;SDS011;8692;52.164;7.558;2022-10-17T09:36:08;6.80;;;6.17;;
17153;SDS011;8692;52.164;7.558;2022-10-17T09:38:42;9.93;;;6.53;;
17153;SDS011;8692;52.164;7.558;2022-10-17T09:41:18;7.77;;;6.83;;
17153;SDS011;8692;52.164;7.558;2022-10-17T09:44:12;10.40;;;6.57;;
17153;SDS011;8692;52.164;7.558;2022-10-17T09:46:45;6.83;;;5.80;;
17153;SDS011;8692;52.164;7.558;2022-10-17T09:49:23;7.27;;;6.30;;
17153;SDS011;8692;52.164;7.558;2022-10-17T09:52:01;8.03;;;5.57;;
17153;SDS011;8692;52.164;7.558;2022-10-17T09:54:39;7.63;;;6.07;;
17153;SDS011;8692;52.164;7.558;2022-10-17T09:57:12;6.00;;;5.47;;
17153;SDS011;8692;52.164;7.558;2022-10-17T09:59:43;6.20;;;5.07;;
17153;SDS011;8692;52.164;7.558;2022-10-17T10:02:15;7.43;;;5.93;;
17153;SDS011;8692;52.164;7.558;2022-10-17T10:07:45;6.90;;;5.10;;
17153;SDS011;8692;52.164;7.558;2022-10-17T10:10:29;6.30;;;4.97;;
17153;SDS011;8692;52.164;7.558;2022-10-17T10:13:02;12.77;;;5.30;;
17153;SDS011;8692;52.164;7.558;2022-10-17T10:15:34;4.93;;;4.40;;
17153;SDS011;8692;52.164;7.558;2022-10-17T10:21:03;7.10;;;5.10;;
17153;SDS011;8692;52.164;7.558;2022-10-17T10:23:36;6.60;;;4.50;;
17153;SDS011;8692;52.164;7.558;2022-10-17T10:26:16;7.03;;;4.63;;
17153;SDS011;8692;52.164;7.558;2022-10-17T10:28:57;9.80;;;5.47;;
17153;SDS011;8692;52.164;7.558;2022-10-17T10:31:29;7.03;;;4.53;;
17153;SDS011;8692;52.164;7.558;2022-10-17T10:34:00;6.90;;;4.13;;
17153;SDS011;8692;52.164;7.558;2022-10-17T10:36:43;7.10;;;4.33;;
17153;SDS011;8692;52.164;7.558;2022-10-17T10:39:32;6.83;;;4.50;;
17153;SDS011;8692;52.164;7.558;2022-10-17T10:42:19;7.10;;;4.43;;
17153;SDS011;8692;52.164;7.558;2022-10-17T10:44:51;5.40;;;4.70;;
17153;SDS011;8692;52.164;7.558;2022-10-17T10:47:22;7.40;;;4.60;;
17153;SDS011;8692;52.164;7.558;2022-10-17T10:49:52;8.53;;;4.80;;
17153;SDS011;8692;52.164;7.558;2022-10-17T10:52:38;7.57;;;4.50;;
17153;SDS011;8692;52.164;7.558;2022-10-17T10:55:15;10.77;;;4.47;;
17153;SDS011;8692;52.164;7.558;2022-10-17T10:57:49;7.47;;;4.43;;
17153;SDS011;8692;52.164;7.558;2022-10-17T11:00:22;9.43;;;4.50;;
17153;SDS011;8692;52.164;7.558;2022-10-17T11:02:55;8.23;;;4.73;;
17153;SDS011;8692;52.164;7.558;2022-10-17T11:05:35;8.30;;;3.90;;
17153;SDS011;8692;52.164;7.558;2022-10-17T11:08:10;9.17;;;4.77;;
17153;SDS011;8692;52.164;7.558;2022-10-17T11:10:52;8.93;;;4.30;;
17153;SDS011;8692;52.164;7.558;2022-10-17T11:13:29;5.60;;;4.27;;
17153;SDS011;8692;52.164;7.558;2022-10-17T11:16:11;8.30;;;4.13;;
17153;SDS011;8692;52.164;7.558;2022-10-17T11:18:46;6.50;;;4.00;;
17153;SDS011;8692;52.164;7.558;2022-10-17T11:21:17;9.37;;;4.33;;
17153;SDS011;8692;52.164;7.558;2022-10-17T11:23:52;6.57;;;4.00;;
17153;SDS011;8692;52.164;7.558;2022-10-17T11:26:30;7.90;;;4.33;;
17153;SDS011;8692;52.164;7.558;2022-10-17T11:29:04;7.40;;;4.23;;
17153;SDS011;8692;52.164;7.558;2022-10-17T11:31:33;7.77;;;4.00;;
17153;SDS011;8692;52.164;7.558;2022-10-17T11:34:06;6.40;;;4.80;;
17153;SDS011;8692;52.164;7.558;2022-10-17T11:36:39;5.60;;;4.10;;
17153;SDS011;8692;52.164;7.558;2022-10-17T11:39:10;6.03;;;4.60;;
17153;SDS011;8692;52.164;7.558;2022-10-17T11:41:45;6.23;;;4.30;;
17153;SDS011;8692;52.164;7.558;2022-10-17T11:44:19;7.63;;;4.43;;
17153;SDS011;8692;52.164;7.558;2022-10-17T11:46:53;9.27;;;4.07;;
17153;SDS011;8692;52.164;7.558;2022-10-17T11:49:26;7.90;;;4.90;;
17153;SDS011;8692;52.164;7.558;2022-10-17T11:52:05;6.70;;;5.23;;
17153;SDS011;8692;52.164;7.558;2022-10-17T11:55:11;9.93;;;5.90;;
17153;SDS011;8692;52.164;7.558;2022-10-17T11:57:53;6.97;;;5.60;;
17153;SDS011;8692;52.164;7.558;2022-10-17T12:00:36;6.53;;;4.60;;
17153;SDS011;8692;52.164;7.558;2022-10-17T12:03:21;9.67;;;5.50;;
17153;SDS011;8692;52.164;7.558;2022-10-17T12:05:56;9.20;;;4.47;;
17153;SDS011;8692;52.164;7.558;2022-10-17T12:08:33;5.67;;;4.90;;
17153;SDS011;8692;52.164;7.558;2022-10-17T12:11:09;5.13;;;4.07;;
17153;SDS011;8692;52.164;7.558;2022-10-17T12:13:49;6.73;;;4.63;;
17153;SDS011;8692;52.164;7.558;2022-10-17T12:19:19;5.60;;;5.10;;
17153;SDS011;8692;52.164;7.558;2022-10-17T12:21:57;8.33;;;5.60;;
17153;SDS011;8692;52.164;7.558;2022-10-17T12:24:34;6.20;;;5.60;;
17153;SDS011;8692;52.164;7.558;2022-10-17T12:27:30;7.10;;;6.40;;
17153;SDS011;8692;52.164;7.558;2022-10-17T12:30:20;6.17;;;5.57;;
17153;SDS011;8692;52.164;7.558;2022-10-17T12:32:55;6.40;;;5.63;;
17153;SDS011;8692;52.164;7.558;2022-10-17T12:35:34;5.93;;;5.30;;
17153;SDS011;8692;52.164;7.558;2022-10-17T12:41:04;9.30;;;5.27;;
17153;SDS011;8692;52.164;7.558;2022-10-17T12:52:25;6.30;;;5.40;;
17153;SDS011;8692;52.164;7.558;2022-10-17T12:55:14;7.53;;;4.77;;
17153;SDS011;8692;52.164;7.558;2022-10-17T12:57:48;7.43;;;5.10;;
17153;SDS011;8692;52.164;7.558;2022-10-17T13:00:24;8.00;;;5.80;;
17153;SDS011;8692;52.164;7.558;2022-10-17T13:03:04;7.80;;;5.50;;
17153;SDS011;8692;52.164;7.558;2022-10-17T13:05:37;12.60;;;6.30;;
17153;SDS011;8692;52.164;7.558;2022-10-17T13:08:13;8.63;;;5.50;;
17153;SDS011;8692;52.164;7.558;2022-10-17T13:10:44;6.83;;;5.23;;
17153;SDS011;8692;52.164;7.558;2022-10-17T13:13:19;7.40;;;5.93;;
17153;SDS011;8692;52.164;7.558;2022-10-17T13:15:49;5.83;;;5.13;;
17153;SDS011;8692;52.164;7.558;2022-10-17T13:18:20;6.10;;;5.50;;
17153;SDS011;8692;52.164;7.558;2022-10-17T13:20:54;6.93;;;5.40;;
17153;SDS011;8692;52.164;7.558;2022-10-17T13:23:28;7.60;;;5.33;;
17153;SDS011;8692;52.164;7.558;2022-10-17T13:26:01;8.17;;;5.53;;
17153;SDS011;8692;52.164;7.558;2022-10-17T13:28:36;7.20;;;5.67;;
17153;SDS011;8692;52.164;7.558;2022-10-17T13:31:05;6.97;;;5.73;;
17153;SDS011;8692;52.164;7.558;2022-10-17T13:33:38;7.60;;;5.27;;
17153;SDS011;8692;52.164;7.558;2022-10-17T13:36:12;9.83;;;5.10;;
17153;SDS011;8692;52.164;7.558;2022-10-17T13:38:44;8.90;;;5.40;;
17153;SDS011;8692;52.164;7.558;2022-10-17T13:41:13;9.07;;;5.97;;
17153;SDS011;8692;52.164;7.558;2022-10-17T13:44:02;8.13;;;5.77;;
17153;SDS011;8692;52.164;7.558;2022-10-17T13:46:37;7.43;;;6.73;;
17153;SDS011;8692;52.164;7.558;2022-10-17T13:49:11;9.80;;;6.43;;
17153;SDS011;8692;52.164;7.558;2022-10-17T13:51:50;6.43;;;5.90;;
17153;SDS011;8692;52.164;7.558;2022-10-17T13:57:16;6.67;;;6.07;;
17153;SDS011;8692;52.164;7.558;2022-10-17T13:59:46;6.13;;;5.60;;
17153;SDS011;8692;52.164;7.558;2022-10-17T14:02:19;11.33;;;6.27;;
17153;SDS011;8692;52.164;7.558;2022-10-17T14:04:59;9.77;;;7.00;;
17153;SDS011;8692;52.164;7.558;2022-10-17T14:07:48;6.40;;;5.80;;
17153;SDS011;8692;52.164;7.558;2022-10-17T14:10:38;6.37;;;5.80;;
17153;SDS011;8692;52.164;7.558;2022-10-17T14:13:16;9.00;;;6.10;;
17153;SDS011;8692;52.164;7.558;2022-10-17T14:15:48;11.43;;;6.60;;
17153;SDS011;8692;52.164;7.558;2022-10-17T14:18:21;6.10;;;5.50;;
17153;SDS011;8692;52.164;7.558;2022-10-17T14:20:54;7.70;;;6.27;;
17153;SDS011;8692;52.164;7.558;2022-10-17T14:23:43;6.37;;;5.47;;
17153;SDS011;8692;52.164;7.558;2022-10-17T14:26:12;6.10;;;5.50;;
17153;SDS011;8692;52.164;7.558;2022-10-17T14:28:43;7.50;;;6.73;;
17153;SDS011;8692;52.164;7.558;2022-10-17T14:31:21;10.13;;;6.97;;
17153;SDS011;8692;52.164;7.558;2022-10-17T14:33:52;9.70;;;6.77;;
17153;SDS011;8692;52.164;7.558;2022-10-17T14:36:31;8.70;;;6.47;;
17153;SDS011;8692;52.164;7.558;2022-10-17T14:39:02;10.97;;;8.07;;
17153;SDS011;8692;52.164;7.558;2022-10-17T14:41:40;6.93;;;6.30;;
17153;SDS011;8692;52.164;7.558;2022-10-17T14:44:21;7.17;;;6.47;;
17153;SDS011;8692;52.164;7.558;2022-10-17T14:46:56;11.27;;;6.80;;
17153;SDS011;8692;52.164;7.558;2022-10-17T14:49:35;7.87;;;7.03;;
17153;SDS011;8692;52.164;7.558;2022-10-17T14:52:09;11.13;;;7.47;;
17153;SDS011;8692;52.164;7.558;2022-10-17T14:54:52;9.10;;;6.97;;
17153;SDS011;8692;52.164;7.558;2022-10-17T14:57:25;10.23;;;6.67;;
17153;SDS011;8692;52.164;7.558;2022-10-17T14:59:56;11.03;;;7.63;;
17153;SDS011;8692;52.164;7.558;2022-10-17T15:02:27;8.17;;;7.33;;
17153;SDS011;8692;52.164;7.558;2022-10-17T15:04:56;8.83;;;7.40;;
17153;SDS011;8692;52.164;7.558;2022-10-17T15:07:26;11.83;;;8.20;;
17153;SDS011;8692;52.164;7.558;2022-10-17T15:09:54;9.47;;;8.00;;
17153;SDS011;8692;52.164;7.558;2022-10-17T15:12:23;8.50;;;7.70;;
17153;SDS011;8692;52.164;7.558;2022-10-17T15:14:52;12.13;;;9.07;;
17153;SDS011;8692;52.164;7.558;2022-10-17T15:17:23;10.67;;;8.57;;
17153;SDS011;8692;52.164;7.558;2022-10-17T15:19:56;19.00;;;11.43;;
17153;SDS011;8692;52.164;7.558;2022-10-17T15:22:24;18.97;;;12.47;;
17153;SDS011;8692;52.164;7.558;2022-10-17T15:24:54;27.50;;;14.87;;
17153;SDS011;8692;52.164;7.558;2022-10-17T15:27:25;22.80;;;14.13;;
17153;SDS011;8692;52.164;7.558;2022-10-17T15:29:55;16.83;;;12.40;;
17153;SDS011;8692;52.164;7.558;2022-10-17T15:32:23;11.37;;;8.93;;
17153;SDS011;8692;52.164;7.558;2022-10-17T15:34:51;11.23;;;8.77;;
17153;SDS011;8692;52.164;7.558;2022-10-17T15:37:20;11.27;;;8.33;;
17153;SDS011;8692;52.164;7.558;2022-10-17T15:39:52;8.47;;;7.60;;
17153;SDS011;8692;52.164;7.558;2022-10-17T15:42:21;10.03;;;6.70;;
17153;SDS011;8692;52.164;7.558;2022-10-17T15:44:53;7.23;;;6.53;;
17153;SDS011;8692;52.164;7.558;2022-10-17T15:47:23;9.37;;;6.60;;
17153;SDS011;8692;52.164;7.558;2022-10-17T15:49:53;8.27;;;7.13;;
17153;SDS011;8692;52.164;7.558;2022-10-17T15:52:22;11.00;;;6.63;;
17153;SDS011;8692;52.164;7.558;2022-10-17T15:54:52;7.80;;;7.00;;
17153;SDS011;8692;52.164;7.558;2022-10-17T15:57:25;9.23;;;6.63;;
17153;SDS011;8692;52.164;7.558;2022-10-17T15:59:56;7.87;;;6.40;;
17153;SDS011;8692;52.164;7.558;2022-10-17T16:02:25;12.87;;;7.27;;
17153;SDS011;8692;52.164;7.558;2022-10-17T16:04:54;8.43;;;7.53;;
17153;SDS011;8692;52.164;7.558;2022-10-17T16:07:22;10.40;;;9.20;;
17153;SDS011;8692;52.164;7.558;2022-10-17T16:09:52;9.40;;;7.73;;